Time;durP1;ratioP1;P1;durP2;ratioP2;P2;SDS_P1;SDS_P2;PMS_P1;PMS_P2;Temp;Humidity;BMP_temperature;BMP_pressure;BME280_temperature;BME280_humidity;BME280_pressure;Samples;Min_cycle;Max_cycle;Signal;HPM_P1;HPM_P2
2022/04/21 00:00:04;;;;;;;14.02;7.18;;;;;;;1.15;78.24;94907.69;5049841;28;20045;-74
2022/04/21 00:02:49;;;;;;;13.70;7.20;;;;;;;1.09;78.57;94895.59;5062494;28;20433;-74
2022/04/21 00:05:15;;;;;;;14.90;7.38;;;;;;;0.97;78.68;94900.00;5067271;28;20066;-74
2022/04/21 00:07:40;;;;;;;15.23;7.15;;;;;;;1.04;79.11;94890.31;5067949;28;20041;-75
2022/04/21 00:10:08;;;;;;;15.30;6.90;;;;;;;1.08;78.08;94895.81;5067846;28;20041;-75
2022/04/21 00:12:35;;;;;;;13.60;6.90;;;;;;;0.94;78.61;94885.69;5067462;28;20681;-75
2022/04/21 00:15:05;;;;;;;19.85;7.85;;;;;;;0.90;79.00;94888.94;5070726;28;20064;-75
2022/04/21 00:17:31;;;;;;;18.20;7.82;;;;;;;0.77;79.11;94890.72;5062587;28;20418;-75
2022/04/21 00:19:57;;;;;;;17.95;7.15;;;;;;;0.73;79.66;94879.22;5068530;28;20041;-75
2022/04/21 00:25:08;;;;;;;13.27;6.72;;;;;;;0.73;79.40;94876.63;5068068;28;20040;-75
2022/04/21 00:27:41;;;;;;;15.73;7.13;;;;;;;0.64;79.46;94867.63;5061197;28;20108;-75
2022/04/21 00:30:08;;;;;;;16.63;6.85;;;;;;;0.58;79.38;94873.69;5066641;28;20040;-75
2022/04/21 00:32:35;;;;;;;18.73;7.30;;;;;;;0.52;80.11;94876.16;5069685;28;20063;-75
2022/04/21 00:35:00;;;;;;;17.30;7.28;;;;;;;0.34;81.12;94877.00;5069055;28;20509;-76
2022/04/21 00:37:26;;;;;;;17.92;7.43;;;;;;;0.37;80.14;94880.16;5068151;28;20041;-74
2022/04/21 00:39:52;;;;;;;22.42;8.23;;;;;;;0.39;80.33;94884.09;5056570;28;20049;-75
2022/04/21 00:42:18;;;;;;;16.45;8.07;;;;;;;0.38;80.76;94872.16;5071502;28;20444;-74
2022/04/21 00:44:44;;;;;;;16.10;7.38;;;;;;;0.32;80.37;94873.06;5071530;28;20067;-75
2022/04/21 00:47:10;;;;;;;15.38;7.85;;;;;;;0.45;80.86;94872.09;5074912;28;20123;-75
2022/04/21 00:49:37;;;;;;;19.08;7.82;;;;;;;0.36;80.27;94863.84;5059710;28;20461;-75
2022/04/21 00:52:03;;;;;;;25.45;7.65;;;;;;;0.23;80.73;94858.84;5069575;28;20048;-75
2022/04/21 00:54:33;;;;;;;19.67;8.10;;;;;;;0.24;81.42;94860.41;5070336;28;20125;-75
2022/04/21 00:57:01;;;;;;;20.92;7.82;;;;;;;0.13;81.59;94864.53;5064983;28;20048;-75
2022/04/21 00:59:27;;;;;;;23.27;8.18;;;;;;;0.26;81.05;94863.56;5066637;28;20036;-75
2022/04/21 01:04:41;;;;;;;16.67;7.93;;;;;;;0.10;81.92;94859.78;5070641;28;20124;-75
2022/04/21 01:07:08;;;;;;;17.50;7.72;;;;;;;0.06;82.17;94859.47;5062635;28;20049;-75
2022/04/21 01:09:40;;;;;;;21.27;8.57;;;;;;;0.14;81.34;94864.34;5071097;28;20090;-75
2022/04/21 01:12:09;;;;;;;15.63;6.97;;;;;;;0.17;81.56;94861.31;5068490;28;20132;-75
2022/04/21 01:14:38;;;;;;;17.60;7.65;;;;;;;0.09;81.94;94859.03;5055032;28;20036;-74
2022/04/21 01:17:05;;;;;;;21.77;8.20;;;;;;;0.01;82.45;94851.56;5071135;28;20624;-75
2022/04/21 01:19:31;;;;;;;25.73;8.27;;;;;;;-0.02;82.36;94852.00;5071826;28;20044;-75
2022/04/21 01:21:56;;;;;;;18.25;8.57;;;;;;;0.07;82.16;94855.06;5068120;28;20057;-75
2022/04/21 01:24:22;;;;;;;19.33;9.00;;;;;;;-0.02;82.18;94852.00;5081743;28;20037;-75
2022/04/21 01:26:47;;;;;;;19.13;8.30;;;;;;;0.02;82.50;94853.13;5069144;28;20043;-75
2022/04/21 01:29:13;;;;;;;24.48;8.43;;;;;;;0.04;81.69;94856.28;5068356;28;20164;-75
2022/04/21 01:31:39;;;;;;;21.85;8.20;;;;;;;-0.08;82.69;94855.47;5069267;28;20056;-75
2022/04/21 01:34:05;;;;;;;19.40;8.85;;;;;;;0.01;82.09;94851.56;5066063;28;20679;-75
2022/04/21 01:36:31;;;;;;;18.45;8.52;;;;;;;-0.01;82.09;94853.59;5072310;28;20062;-74
2022/04/21 01:41:40;;;;;;;17.15;8.25;;;;;;;-0.09;83.46;94856.47;5070714;28;20049;-75
2022/04/21 01:44:06;;;;;;;20.25;8.82;;;;;;;-0.01;82.84;94858.75;5081059;28;20051;-74
2022/04/21 01:46:32;;;;;;;27.38;8.73;;;;;;;0.04;82.73;94851.13;5071627;28;20094;-74
2022/04/21 01:48:58;;;;;;;21.25;8.90;;;;;;;0.03;82.87;94848.75;5068381;28;20094;-75
2022/04/21 01:51:24;;;;;;;20.13;9.05;;;;;;;-0.04;82.88;94856.59;5074136;28;20062;-75
2022/04/21 01:53:49;;;;;;;20.23;8.20;;;;;;;-0.12;83.35;94843.97;5065915;28;20036;-75
2022/04/21 01:56:16;;;;;;;22.67;9.38;;;;;;;-0.16;83.41;94845.41;5068399;28;20040;-75
2022/04/21 01:58:41;;;;;;;21.65;8.45;;;;;;;-0.20;83.96;94845.84;5069094;28;20490;-75
2022/04/21 02:01:08;;;;;;;19.58;8.82;;;;;;;-0.28;83.84;94843.56;5075615;28;20044;-74
2022/04/21 02:03:34;;;;;;;22.13;9.57;;;;;;;-0.23;83.76;94835.13;5090377;28;20040;-75
2022/04/21 02:05:59;;;;;;;22.48;9.02;;;;;;;-0.25;83.72;94832.78;5072577;28;20051;-75
2022/04/21 02:08:26;;;;;;;22.67;9.18;;;;;;;-0.33;84.20;94840.84;5062912;28;20502;-73
2022/04/21 02:10:53;;;;;;;17.58;8.13;;;;;;;-0.39;84.06;94844.28;5060962;28;20045;-73
2022/04/21 02:13:19;;;;;;;18.85;8.45;;;;;;;-0.38;84.43;94843.28;5073705;28;20541;-73
2022/04/21 02:15:44;;;;;;;23.42;9.07;;;;;;;-0.37;84.26;94837.09;5065983;28;20045;-73
2022/04/21 02:18:10;;;;;;;21.15;9.00;;;;;;;-0.46;84.54;94840.97;5080873;28;20048;-73
2022/04/21 02:20:36;;;;;;;21.17;9.20;;;;;;;-0.49;84.45;94836.25;5085641;28;20044;-73
2022/04/21 02:23:01;;;;;;;20.85;8.82;;;;;;;-0.42;84.18;94831.78;5064334;28;20115;-75
2022/04/21 02:25:27;;;;;;;22.30;9.63;;;;;;;-0.49;84.69;94829.28;5062756;28;20041;-73
2022/04/21 02:27:52;;;;;;;20.00;9.32;;;;;;;-0.54;84.78;94829.91;5064901;28;20044;-73
2022/04/21 02:30:19;;;;;;;22.23;9.70;;;;;;;-0.54;85.16;94831.72;5068692;28;20052;-75
2022/04/21 02:32:45;;;;;;;23.50;10.05;;;;;;;-0.63;85.44;94831.22;5070129;28;20036;-75
2022/04/21 02:35:12;;;;;;;24.10;9.32;;;;;;;-0.71;85.98;94828.91;5068621;28;20040;-75
2022/04/21 02:37:40;;;;;;;22.25;9.55;;;;;;;-0.75;86.25;94838.09;5054423;28;20045;-73
2022/04/21 02:40:07;;;;;;;23.25;8.68;;;;;;;-0.77;85.96;94834.97;5074658;28;20044;-73
2022/04/21 02:42:33;;;;;;;21.35;9.95;;;;;;;-0.74;85.47;94829.34;5078113;28;20213;-72
2022/04/21 02:44:59;;;;;;;22.70;9.45;;;;;;;-0.76;85.98;94824.41;5065961;28;20076;-75
2022/04/21 02:47:25;;;;;;;24.40;9.85;;;;;;;-0.72;85.48;94828.16;5057880;28;20040;-73
2022/04/21 02:49:52;;;;;;;21.48;9.15;;;;;;;-0.61;84.96;94834.38;5069351;28;20555;-75
2022/04/21 02:52:18;;;;;;;25.15;9.55;;;;;;;-0.68;85.66;94828.50;5068538;28;20036;-75
2022/04/21 02:57:30;;;;;;;22.00;9.63;;;;;;;-0.75;86.67;94817.44;5057042;28;20071;-75
2022/04/21 02:59:59;;;;;;;27.33;9.75;;;;;;;-0.74;86.44;94824.19;5055058;28;20118;-75
2022/04/21 03:02:25;;;;;;;22.42;10.27;;;;;;;-0.95;87.51;94823.59;5063469;28;20122;-76
2022/04/21 03:04:52;;;;;;;22.20;9.32;;;;;;;-0.85;87.45;94817.16;5068431;28;20048;-76
2022/04/21 03:07:22;;;;;;;21.50;9.65;;;;;;;-0.72;86.51;94822.97;5058762;28;20120;-75
2022/04/21 03:09:49;;;;;;;23.70;9.68;;;;;;;-0.76;86.86;94821.00;5068640;28;20090;-76
2022/04/21 03:12:15;;;;;;;21.55;9.27;;;;;;;-0.80;87.31;94817.31;5062966;28;20362;-76
2022/04/21 03:14:41;;;;;;;22.30;9.23;;;;;;;-0.87;87.17;94810.41;5067050;28;20040;-76
2022/04/21 03:17:09;;;;;;;34.35;10.45;;;;;;;-0.88;86.91;94814.00;5068015;28;20055;-75
2022/04/21 03:19:35;;;;;;;28.98;9.23;;;;;;;-0.85;86.62;94809.41;5069218;28;20041;-75
2022/04/21 03:25:07;;;;;;;24.17;8.98;;;;;;;-0.91;86.77;94814.41;5005213;28;20049;-75
2022/04/21 03:27:33;;;;;;;22.23;8.80;;;;;;;-0.83;86.44;94812.53;5005614;28;20503;-75
2022/04/21 03:30:00;;;;;;;21.63;9.43;;;;;;;-0.88;86.54;94813.19;5030433;28;20080;-76
2022/04/21 03:32:26;;;;;;;22.15;8.77;;;;;;;-0.84;86.71;94813.56;5065527;28;20522;-75
2022/04/21 03:34:53;;;;;;;22.80;9.93;;;;;;;-0.72;85.56;94811.84;5066853;28;20724;-75
2022/04/21 03:37:20;;;;;;;20.75;9.52;;;;;;;-0.73;85.94;94810.28;5057668;28;20047;-75
2022/04/21 03:39:46;;;;;;;23.70;9.50;;;;;;;-0.79;85.92;94811.13;5062759;28;20044;-75
2022/04/21 03:42:27;;;;;;;26.13;10.32;;;;;;;-0.75;86.62;94801.94;5063818;28;20463;-76
2022/04/21 03:44:53;;;;;;;22.48;10.00;;;;;;;-0.74;86.66;94803.53;5062519;28;20068;-75
2022/04/21 03:47:20;;;;;;;26.92;10.52;;;;;;;-0.82;87.31;94796.84;5068627;28;20086;-76
2022/04/21 03:49:46;;;;;;;22.58;8.82;;;;;;;-0.79;86.22;94786.09;5058475;28;20115;-76
2022/04/21 03:52:11;;;;;;;20.95;9.18;;;;;;;-0.70;86.52;94796.91;5063825;28;20070;-75
2022/04/21 03:54:38;;;;;;;24.38;9.93;;;;;;;-0.71;86.55;94792.75;5059107;28;20029;-75
2022/04/21 03:57:04;;;;;;;20.95;8.85;;;;;;;-0.70;87.02;94789.16;5056991;28;20418;-75
2022/04/21 03:59:31;;;;;;;21.23;9.68;;;;;;;-0.59;85.65;94796.19;5059607;28;20117;-75
2022/04/21 04:02:02;;;;;;;25.20;9.77;;;;;;;-0.66;86.67;94794.69;5087500;28;20067;-75
2022/04/21 04:04:33;;;;;;;27.95;10.38;;;;;;;-0.66;87.19;94798.06;5066796;28;20049;-73
2022/04/21 04:12:32;;;;;;;22.92;8.98;;;;;;;-0.67;86.81;94791.31;5085035;28;20062;-75
2022/04/21 04:14:58;;;;;;;22.67;9.57;;;;;;;-0.67;87.33;94788.72;5068533;28;20151;-75
2022/04/21 04:17:24;;;;;;;23.10;9.65;;;;;;;-0.67;86.89;94788.72;5064754;28;20036;-76
2022/04/21 04:19:49;;;;;;;25.75;9.45;;;;;;;-0.61;87.16;94785.28;5057847;28;20048;-75
2022/04/21 04:22:15;;;;;;;22.05;9.82;;;;;;;-0.62;87.15;94775.16;5070390;28;20041;-76
2022/04/21 04:24:43;;;;;;;27.98;9.82;;;;;;;-0.58;87.04;94786.63;5061732;28;20051;-76
2022/04/21 04:27:09;;;;;;;23.77;9.55;;;;;;;-0.59;87.01;94774.72;5060444;28;20049;-75
2022/04/21 04:29:34;;;;;;;23.90;9.45;;;;;;;-0.49;87.06;94779.38;5064249;28;20048;-75
2022/04/21 04:32:01;;;;;;;25.65;10.18;;;;;;;-0.38;86.15;94781.22;5071564;28;20049;-75
2022/04/21 04:34:27;;;;;;;21.67;9.43;;;;;;;-0.28;85.72;94776.31;5070052;28;20085;-75
2022/04/21 04:36:53;;;;;;;27.02;9.98;;;;;;;-0.20;85.62;94777.84;5067593;28;20071;-76
2022/04/21 04:39:19;;;;;;;20.83;8.95;;;;;;;-0.13;85.51;94777.72;5071918;28;20047;-76
2022/04/21 04:44:29;;;;;;;27.43;10.00;;;;;;;0.00;84.78;94793.09;5067947;28;20048;-75
2022/04/21 04:46:55;;;;;;;26.45;9.93;;;;;;;0.08;84.96;94792.75;5062405;28;20069;-75
2022/04/21 04:49:21;;;;;;;26.52;9.93;;;;;;;0.19;84.39;94785.22;5074025;28;20044;-75
2022/04/21 04:51:47;;;;;;;27.15;10.18;;;;;;;0.14;84.02;94778.16;5068879;28;20059;-76
2022/04/21 04:54:14;;;;;;;28.50;10.25;;;;;;;0.15;84.46;94775.34;5071780;28;20097;-75
2022/04/21 04:56:41;;;;;;;29.48;11.45;;;;;;;0.20;84.69;94781.66;5065639;28;20045;-76
2022/04/21 04:59:07;;;;;;;22.83;9.93;;;;;;;0.26;85.03;94780.75;5065259;28;20064;-76
2022/04/21 05:01:43;;;;;;;22.92;10.18;;;;;;;0.40;85.44;94792.47;5068640;28;20097;-76
2022/04/21 05:04:11;;;;;;;39.10;10.52;;;;;;;0.48;85.57;94784.41;5070637;28;20118;-76
2022/04/21 05:06:38;;;;;;;23.55;9.48;;;;;;;0.67;85.47;94786.88;5058035;28;20619;-76
2022/04/21 05:09:09;;;;;;;23.33;9.50;;;;;;;0.68;85.83;94780.72;5065000;28;20669;-76
2022/04/21 05:11:36;;;;;;;30.98;11.82;;;;;;;0.67;86.24;94786.88;5057593;28;20048;-76
2022/04/21 05:14:02;;;;;;;25.23;9.85;;;;;;;0.77;85.76;94783.75;5070051;28;20406;-76
2022/04/21 05:16:28;;;;;;;29.13;9.73;;;;;;;0.92;85.88;94788.47;5076852;28;20115;-76
2022/04/21 05:18:55;;;;;;;26.20;11.13;;;;;;;1.04;85.04;94782.25;5065384;28;20999;-76
2022/04/21 05:21:21;;;;;;;26.05;11.35;;;;;;;1.12;84.81;94781.16;5066426;28;20045;-76
2022/04/21 05:23:47;;;;;;;26.02;10.73;;;;;;;1.20;83.27;94780.78;5069255;28;20067;-76
2022/04/21 05:26:16;;;;;;;22.20;9.90;;;;;;;1.35;83.80;94776.91;5050570;28;20117;-76
2022/04/21 05:28:44;;;;;;;22.70;9.45;;;;;;;1.43;83.64;94780.97;5072418;28;20063;-76
2022/04/21 05:31:10;;;;;;;25.67;10.43;;;;;;;1.47;83.58;94784.69;5069747;28;20071;-76
2022/04/21 05:33:37;;;;;;;26.58;10.80;;;;;;;1.50;83.51;94785.00;5078271;28;20040;-76
2022/04/21 05:36:04;;;;;;;26.25;10.75;;;;;;;1.55;83.02;94777.34;5067413;28;20560;-77
2022/04/21 05:38:30;;;;;;;21.83;9.93;;;;;;;1.61;83.40;94780.00;5071770;28;20064;-76
2022/04/21 05:40:56;;;;;;;25.83;10.70;;;;;;;1.76;83.17;94780.31;5066899;28;20395;-75
2022/04/21 05:43:28;;;;;;;25.23;10.57;;;;;;;1.83;83.34;94777.56;5072752;28;20495;-75
2022/04/21 05:45:53;;;;;;;26.52;10.75;;;;;;;1.97;83.05;94788.44;5056481;28;20071;-76
2022/04/21 05:48:19;;;;;;;22.42;10.07;;;;;;;2.07;83.35;94783.47;5067624;28;20045;-76
2022/04/21 05:50:48;;;;;;;32.50;13.10;;;;;;;2.23;83.06;94777.50;5052651;28;20070;-75
2022/04/21 05:53:22;;;;;;;23.33;10.93;;;;;;;2.38;82.49;94778.75;5064811;28;20197;-74
2022/04/21 05:55:48;;;;;;;26.38;11.45;;;;;;;2.51;82.57;94778.44;5077063;28;20040;-76
2022/04/21 05:58:14;;;;;;;30.30;12.38;;;;;;;2.67;82.71;94786.47;5066467;28;20039;-75
2022/04/21 06:00:39;;;;;;;29.90;12.05;;;;;;;2.83;82.95;94775.31;5072603;28;20048;-75
2022/04/21 06:03:05;;;;;;;31.15;13.20;;;;;;;3.11;83.76;94776.19;5075772;28;20458;-75
2022/04/21 06:05:31;;;;;;;31.23;12.55;;;;;;;3.42;81.28;94773.97;5064176;28;20098;-75
2022/04/21 06:07:57;;;;;;;30.30;12.52;;;;;;;3.55;81.27;94775.41;5050507;28;20041;-75
2022/04/21 06:10:22;;;;;;;28.05;13.75;;;;;;;3.58;82.08;94769.75;5071893;28;20040;-75
2022/04/21 06:12:49;;;;;;;29.25;14.63;;;;;;;3.84;81.54;94776.00;5068993;28;20044;-74
2022/04/21 06:15:15;;;;;;;32.45;14.02;;;;;;;3.96;80.73;94770.66;5063392;28;20062;-76
2022/04/21 06:17:42;;;;;;;31.55;15.05;;;;;;;4.09;79.69;94764.28;5071750;28;20461;-76
2022/04/21 06:20:09;;;;;;;37.65;14.93;;;;;;;4.08;81.72;94762.69;5068250;28;20044;-74
2022/04/21 06:22:34;;;;;;;34.10;15.30;;;;;;;4.18;79.49;94767.22;5066161;28;20052;-75
2022/04/21 06:25:00;;;;;;;30.17;14.85;;;;;;;4.43;78.35;94779.69;5066703;28;20053;-76
2022/04/21 06:27:26;;;;;;;31.60;14.57;;;;;;;4.41;77.78;94771.31;5062473;28;20033;-75
2022/04/21 06:29:51;;;;;;;35.55;15.57;;;;;;;4.40;78.12;94769.78;5066266;28;20099;-75
2022/04/21 06:32:17;;;;;;;36.97;16.08;;;;;;;4.40;79.50;94769.78;5067756;28;20120;-75
2022/04/21 06:34:43;;;;;;;45.45;16.10;;;;;;;4.68;75.73;94769.47;5078690;28;20040;-76
2022/04/21 06:37:08;;;;;;;31.33;15.60;;;;;;;4.75;75.71;94771.06;5072460;28;20040;-74
2022/04/21 06:39:34;;;;;;;33.15;15.18;;;;;;;4.84;74.60;94769.53;5063096;28;20421;-74
2022/04/21 06:42:00;;;;;;;33.42;15.68;;;;;;;4.84;75.14;94774.75;5080676;28;20049;-74
2022/04/21 06:49:53;;;;;;;41.05;15.73;;;;;;;4.94;73.71;94774.84;5065327;28;20531;-74
2022/04/21 06:52:19;;;;;;;40.60;15.35;;;;;;;5.01;74.01;94769.41;5067616;28;20045;-75
2022/04/21 06:54:44;;;;;;;38.17;16.35;;;;;;;4.93;74.81;94773.28;5070610;28;20032;-75
2022/04/21 06:57:10;;;;;;;35.22;15.75;;;;;;;4.84;74.73;94764.34;5054903;28;20507;-76
2022/04/21 06:59:37;;;;;;;39.00;15.35;;;;;;;4.95;74.14;94765.97;5068838;28;20089;-76
2022/04/21 07:02:03;;;;;;;33.40;15.60;;;;;;;5.17;74.04;94759.84;5068548;28;20101;-76
2022/04/21 07:04:29;;;;;;;38.97;15.38;;;;;;;5.17;73.05;94757.22;5066279;28;20051;-74
2022/04/21 07:06:54;;;;;;;30.52;15.50;;;;;;;5.02;72.38;94766.53;5072274;28;20429;-77
2022/04/21 07:09:20;;;;;;;40.63;16.27;;;;;;;5.34;70.73;94757.84;5063158;28;20041;-76
2022/04/21 07:11:45;;;;;;;35.40;15.25;;;;;;;5.26;73.94;94760.94;5074665;28;20081;-76
2022/04/21 07:14:11;;;;;;;35.17;15.93;;;;;;;5.17;72.77;94760.63;5062931;28;20505;-76
2022/04/21 07:16:36;;;;;;;37.67;15.85;;;;;;;5.50;70.42;94760.50;5057885;28;20037;-76
2022/04/21 07:19:02;;;;;;;34.17;15.68;;;;;;;5.33;69.07;94761.50;5068058;28;20051;-76
2022/04/21 07:21:27;;;;;;;33.85;15.23;;;;;;;5.30;70.44;94762.00;5065798;28;20107;-75
2022/04/21 07:23:53;;;;;;;36.78;15.80;;;;;;;5.34;71.59;94759.66;5068026;28;20060;-76
2022/04/21 07:26:20;;;;;;;49.53;15.60;;;;;;;5.40;66.94;94760.47;5069464;28;20531;-75
2022/04/21 07:28:45;;;;;;;37.58;14.68;;;;;;;5.56;68.68;94764.72;5056279;28;20531;-75
2022/04/21 07:31:11;;;;;;;37.40;14.52;;;;;;;5.50;68.30;94757.91;5068641;28;20054;-75
2022/04/21 07:33:37;;;;;;;31.15;14.38;;;;;;;5.54;70.17;94764.19;5068549;28;20040;-75
2022/04/21 07:36:02;;;;;;;32.85;15.25;;;;;;;6.03;66.74;94763.03;5058625;28;20465;-75
2022/04/21 07:38:29;;;;;;;39.22;14.57;;;;;;;6.34;62.89;94757.88;5070996;28;20064;-75
2022/04/21 07:40:54;;;;;;;34.05;14.43;;;;;;;6.45;63.15;94753.41;5068781;28;20051;-75
2022/04/21 07:43:21;;;;;;;31.30;13.65;;;;;;;6.26;64.26;94755.78;5074670;28;20040;-75
2022/04/21 07:45:49;;;;;;;36.55;15.20;;;;;;;6.25;63.62;94760.22;5058471;28;20100;-75
2022/04/21 07:48:15;;;;;;;34.80;14.38;;;;;;;6.23;66.20;94762.28;5065930;28;20044;-75
2022/04/21 07:50:41;;;;;;;37.17;15.50;;;;;;;6.13;66.03;94760.44;5073888;28;20413;-75
2022/04/21 07:53:15;;;;;;;32.67;14.55;;;;;;;6.12;64.42;94760.72;5080163;28;20067;-75
2022/04/21 07:55:42;;;;;;;32.95;14.70;;;;;;;6.15;65.38;94760.19;5067664;28;20398;-75
2022/04/21 07:58:08;;;;;;;36.15;14.50;;;;;;;6.25;65.08;94757.59;5070369;28;20047;-75
2022/04/21 08:00:36;;;;;;;37.80;14.65;;;;;;;6.41;62.98;94756.56;5080264;28;20425;-75
2022/04/21 08:03:03;;;;;;;27.67;13.77;;;;;;;6.55;62.65;94758.66;5078207;28;20051;-75
2022/04/21 08:05:29;;;;;;;34.97;14.27;;;;;;;6.58;62.95;94758.16;5077686;28;20036;-75
2022/04/21 08:07:55;;;;;;;32.88;13.10;;;;;;;6.68;62.14;94763.38;5070533;28;20040;-75
2022/04/21 08:10:20;;;;;;;32.33;14.70;;;;;;;6.98;62.48;94761.75;5072417;28;20047;-75
2022/04/21 08:12:52;;;;;;;30.10;13.50;;;;;;;6.92;63.45;94762.81;5075003;28;20036;-75
2022/04/21 08:15:25;;;;;;;31.48;13.45;;;;;;;7.02;62.24;94757.56;5066938;28;20414;-75
2022/04/21 08:17:52;;;;;;;27.17;13.00;;;;;;;7.13;59.87;94757.56;5078249;28;20387;-75
2022/04/21 08:20:18;;;;;;;28.90;13.35;;;;;;;7.27;58.20;94758.56;5069634;28;20036;-75
2022/04/21 08:22:46;;;;;;;29.33;12.43;;;;;;;7.38;57.65;94754.84;5071071;28;20106;-75
2022/04/21 08:33:26;;;;;;;31.35;12.52;;;;;;;7.76;59.33;94757.06;5070585;28;20067;-75
2022/04/21 08:35:58;;;;;;;31.10;13.27;;;;;;;7.91;60.23;94759.59;5059708;28;20048;-75
2022/04/21 08:38:28;;;;;;;27.80;13.63;;;;;;;8.15;57.49;94751.84;5066747;28;20482;-75
2022/04/21 08:40:56;;;;;;;32.97;13.63;;;;;;;8.07;56.98;94754.25;5074288;28;20583;-75
2022/04/21 08:43:23;;;;;;;33.38;14.05;;;;;;;8.08;57.70;94751.38;5081281;28;20044;-75
2022/04/21 08:45:50;;;;;;;35.45;13.30;;;;;;;8.13;57.38;94750.56;5089453;28;20441;-75
2022/04/21 08:48:18;;;;;;;30.70;14.80;;;;;;;8.32;56.03;94750.72;5085255;28;20249;-75
2022/04/21 08:50:45;;;;;;;31.27;14.32;;;;;;;8.32;56.87;94751.47;5073734;28;20114;-75
2022/04/21 08:53:18;;;;;;;32.60;13.40;;;;;;;8.38;56.35;94746.97;5065345;28;20067;-75
2022/04/21 08:55:44;;;;;;;29.38;14.50;;;;;;;8.53;57.00;94750.56;5071604;28;20051;-75
2022/04/21 08:58:11;;;;;;;31.23;14.63;;;;;;;8.57;57.32;94741.09;5080748;28;20043;-75
2022/04/21 09:00:38;;;;;;;30.70;13.75;;;;;;;8.70;55.97;94744.94;5070831;28;20542;-75
2022/04/21 09:03:06;;;;;;;41.13;14.63;;;;;;;8.87;54.84;94744.53;5071372;28;20051;-75
2022/04/21 09:05:31;;;;;;;32.78;12.95;;;;;;;8.83;54.01;94739.84;5074514;28;20486;-75
2022/04/21 09:07:58;;;;;;;28.30;13.35;;;;;;;9.02;54.22;94741.75;5070986;28;20044;-75
2022/04/21 09:10:28;;;;;;;27.20;12.35;;;;;;;9.16;53.71;94734.75;5091338;28;20102;-75
2022/04/21 09:12:59;;;;;;;27.08;12.95;;;;;;;9.30;52.43;94729.63;5062988;28;20570;-75
2022/04/21 09:15:28;;;;;;;26.92;12.55;;;;;;;9.26;53.03;94731.25;5052589;28;20666;-75
2022/04/21 09:17:56;;;;;;;26.95;12.52;;;;;;;9.35;53.24;94728.78;5050436;28;20036;-75
2022/04/21 09:20:29;;;;;;;27.45;12.48;;;;;;;9.39;51.08;94724.56;5049429;28;20036;-74
2022/04/21 09:23:00;;;;;;;25.27;12.40;;;;;;;9.41;52.55;94717.19;5076295;28;20041;-76
2022/04/21 09:25:28;;;;;;;44.22;12.75;;;;;;;9.51;52.36;94722.31;5069595;28;20494;-76
2022/04/21 09:27:54;;;;;;;26.20;11.68;;;;;;;9.66;51.65;94728.44;5074013;28;20037;-76
2022/04/21 09:30:20;;;;;;;24.17;12.18;;;;;;;9.78;51.49;94720.91;5079284;28;20045;-77
2022/04/21 09:32:53;;;;;;;27.05;13.02;;;;;;;9.83;49.60;94712.97;5081264;28;20062;-78
2022/04/21 09:35:19;;;;;;;25.30;11.57;;;;;;;9.87;50.43;94721.84;5070180;28;20036;-77
2022/04/21 09:37:54;;;;;;;24.17;12.40;;;;;;;9.96;52.02;94718.59;5075172;28;20068;-76
2022/04/21 09:40:22;;;;;;;22.52;11.63;;;;;;;10.07;50.44;94714.75;5064205;28;20539;-77
2022/04/21 09:42:58;;;;;;;24.83;12.15;;;;;;;10.09;50.89;94714.47;5070938;28;20032;-77
2022/04/21 09:48:18;;;;;;;23.87;12.17;;;;;;;10.29;50.22;94719.41;5068165;28;20090;-75
2022/04/21 09:50:49;;;;;;;22.15;11.98;;;;;;;10.15;50.90;94708.84;5075085;28;20041;-75
2022/04/21 09:53:19;;;;;;;24.55;13.13;;;;;;;10.33;51.44;94709.91;5064822;28;20521;-76
2022/04/21 09:55:46;;;;;;;20.33;12.15;;;;;;;10.49;50.80;94707.84;5067675;28;20106;-76
2022/04/21 09:58:13;;;;;;;31.65;14.00;;;;;;;10.55;51.20;94701.41;5069041;28;20037;-76
2022/04/21 10:00:40;;;;;;;31.40;14.02;;;;;;;10.71;52.32;94709.06;5075059;28;20067;-75
2022/04/21 10:03:07;;;;;;;26.83;13.52;;;;;;;10.83;50.83;94690.97;5068986;28;20111;-75
2022/04/21 10:05:34;;;;;;;23.33;12.77;;;;;;;11.10;50.62;94694.66;5065149;28;20049;-76
2022/04/21 10:08:01;;;;;;;23.85;12.93;;;;;;;11.35;50.60;94687.34;5057128;28;20529;-76
2022/04/21 10:10:31;;;;;;;24.80;13.88;;;;;;;11.64;50.13;94686.22;5069475;28;20040;-76
2022/04/21 10:12:59;;;;;;;23.92;13.27;;;;;;;11.79;49.43;94678.00;5079511;28;20040;-76
2022/04/21 10:15:26;;;;;;;28.23;13.10;;;;;;;12.04;49.01;94683.81;5067776;28;20051;-76
2022/04/21 10:17:52;;;;;;;24.92;13.15;;;;;;;12.42;46.93;94678.22;5082117;28;20044;-75
2022/04/21 10:20:22;;;;;;;23.67;13.15;;;;;;;12.36;47.90;94674.16;5070183;28;20048;-76
2022/04/21 10:22:49;;;;;;;27.00;13.48;;;;;;;12.91;47.10;94673.03;5059768;28;20047;-72
2022/04/21 10:25:15;;;;;;;19.95;11.30;;;;;;;13.84;46.10;94673.94;5085019;28;20047;-75
2022/04/21 10:27:43;;;;;;;25.80;12.65;;;;;;;13.62;44.97;94675.63;5065104;28;20048;-76
2022/04/21 10:30:31;;;;;;;21.40;12.25;;;;;;;13.92;43.95;94667.88;5064036;28;20079;-77
2022/04/21 10:32:59;;;;;;;30.67;13.50;;;;;;;14.33;44.64;94666.59;5052862;28;20036;-76
2022/04/21 10:35:24;;;;;;;25.35;13.13;;;;;;;13.74;43.13;94661.00;5070130;28;20036;-77
2022/04/21 10:38:14;;;;;;;22.58;13.43;;;;;;;14.70;45.57;94664.38;5085376;28;20040;-77
2022/04/21 10:41:10;;;;;;;25.42;13.13;;;;;;;15.72;40.78;94659.22;5069412;28;20707;-76
2022/04/21 10:43:48;;;;;;;25.15;14.25;;;;;;;14.83;41.94;94656.56;5073111;28;20036;-76
2022/04/21 10:46:21;;;;;;;27.73;14.20;;;;;;;14.75;42.46;94649.41;5063672;28;20044;-76
2022/04/21 10:48:47;;;;;;;27.38;14.85;;;;;;;15.13;41.44;94648.63;5056739;28;20041;-76
2022/04/21 10:51:41;;;;;;;32.35;16.20;;;;;;;14.82;41.22;94644.41;5056899;28;20498;-77
2022/04/21 11:00:08;;;;;;;27.92;16.40;;;;;;;15.65;41.08;94632.44;5074319;28;20040;-77
2022/04/21 11:02:42;;;;;;;30.25;16.08;;;;;;;16.39;38.25;94637.31;5067216;28;20040;-77
2022/04/21 11:05:23;;;;;;;32.88;17.25;;;;;;;16.19;37.84;94628.28;5072470;28;20040;-77
2022/04/21 11:07:54;;;;;;;29.88;16.88;;;;;;;15.97;37.73;94622.25;5069567;28;20449;-77
2022/04/21 11:10:41;;;;;;;31.08;15.77;;;;;;;16.60;38.75;94616.03;5069266;28;20045;-77
2022/04/21 11:13:13;;;;;;;34.03;17.58;;;;;;;16.49;36.75;94615.66;5075371;28;20037;-78
2022/04/21 11:15:44;;;;;;;36.95;16.27;;;;;;;16.65;37.62;94626.44;5083961;28;20557;-77
2022/04/21 11:18:21;;;;;;;31.75;16.55;;;;;;;16.11;37.03;94617.44;5089433;28;20044;-77
2022/04/21 11:20:49;;;;;;;31.23;16.35;;;;;;;17.25;36.07;94618.09;5076094;28;20032;-77
2022/04/21 11:23:29;;;;;;;32.28;17.08;;;;;;;16.33;36.99;94618.16;5057036;28;20032;-77
2022/04/21 11:26:11;;;;;;;33.88;15.68;;;;;;;16.88;37.57;94615.41;5073137;28;20509;-77
2022/04/21 11:28:45;;;;;;;32.70;16.40;;;;;;;17.05;35.48;94609.91;5076791;28;20042;-76
2022/04/21 11:31:12;;;;;;;31.60;16.10;;;;;;;16.16;36.27;94624.44;5077049;28;20048;-77
2022/04/21 11:33:44;;;;;;;30.20;15.95;;;;;;;15.82;36.67;94601.63;5060451;28;20072;-76
2022/04/21 11:36:12;;;;;;;30.73;15.55;;;;;;;17.00;35.38;94606.69;5057776;28;20049;-77
2022/04/21 11:38:44;;;;;;;27.80;15.35;;;;;;;17.86;35.28;94619.09;5071376;28;20040;-76
2022/04/21 11:41:12;;;;;;;27.58;15.23;;;;;;;18.73;33.46;94601.63;5073300;28;20079;-77
2022/04/21 11:43:45;;;;;;;26.70;14.38;;;;;;;17.49;34.34;94612.75;5068090;28;20116;-77
2022/04/21 11:46:12;;;;;;;27.77;14.50;;;;;;;17.95;33.16;94606.47;5067712;28;20044;-76
2022/04/21 11:48:42;;;;;;;29.55;14.55;;;;;;;18.65;32.63;94592.69;5068305;28;20200;-76
2022/04/21 11:51:10;;;;;;;26.65;13.73;;;;;;;18.20;33.16;94590.38;5069367;28;20498;-77
2022/04/21 11:53:40;;;;;;;23.75;13.35;;;;;;;19.45;32.54;94592.66;5067170;28;20134;-76
2022/04/21 11:56:07;;;;;;;30.02;13.98;;;;;;;18.44;32.25;94584.91;5075709;28;20116;-76
2022/04/21 11:58:35;;;;;;;26.40;14.43;;;;;;;17.83;32.52;94584.06;5070230;28;20050;-80
2022/04/21 12:06:32;;;;;;;29.45;14.15;;;;;;;17.71;33.74;94586.75;5084701;28;20059;-77
2022/04/21 12:08:59;;;;;;;28.30;13.73;;;;;;;18.11;31.64;94583.31;5078314;28;20052;-77
2022/04/21 12:11:25;;;;;;;28.77;14.30;;;;;;;17.78;33.56;94581.63;5067675;28;20040;-76
2022/04/21 12:13:51;;;;;;;27.50;13.75;;;;;;;17.83;33.42;94583.31;5065119;28;20059;-76
2022/04/21 12:16:49;;;;;;;25.80;14.02;;;;;;;17.68;33.17;94576.78;5075046;28;20697;-76